sensor_id;sensor_type;location;lat;lon;timestamp;P1;durP1;ratioP1;P2;durP2;ratioP2
20014;SDS011;61787;42.022;23.078;2023-02-24T00:00:23;29.07;;;18.63;;
20014;SDS011;61787;42.022;23.078;2023-02-24T00:01:34;27.33;;;19.40;;
20014;SDS011;61787;42.022;23.078;2023-02-24T00:02:37;28.23;;;18.80;;
20014;SDS011;61787;42.022;23.078;2023-02-24T00:03:39;27.03;;;18.43;;
20014;SDS011;61787;42.022;23.078;2023-02-24T00:04:45;25.03;;;18.43;;
20014;SDS011;61787;42.022;23.078;2023-02-24T00:05:52;24.77;;;18.40;;
20014;SDS011;61787;42.022;23.078;2023-02-24T00:06:53;24.53;;;17.90;;
20014;SDS011;61787;42.022;23.078;2023-02-24T00:07:55;27.83;;;20.00;;
20014;SDS011;61787;42.022;23.078;2023-02-24T00:08:56;26.73;;;19.40;;
20014;SDS011;61787;42.022;23.078;2023-02-24T00:09:58;27.47;;;20.37;;
20014;SDS011;61787;42.022;23.078;2023-02-24T00:11:05;28.33;;;19.63;;
20014;SDS011;61787;42.022;23.078;2023-02-24T00:12:11;27.43;;;19.83;;
20014;SDS011;61787;42.022;23.078;2023-02-24T00:13:14;28.20;;;20.83;;
20014;SDS011;61787;42.022;23.078;2023-02-24T00:14:24;28.60;;;19.70;;
20014;SDS011;61787;42.022;23.078;2023-02-24T00:15:27;25.90;;;18.97;;
20014;SDS011;61787;42.022;23.078;2023-02-24T00:16:29;26.87;;;20.07;;
20014;SDS011;61787;42.022;23.078;2023-02-24T00:17:31;27.77;;;20.53;;
20014;SDS011;61787;42.022;23.078;2023-02-24T00:18:33;26.77;;;21.13;;
20014;SDS011;61787;42.022;23.078;2023-02-24T00:19:35;32.50;;;21.43;;
20014;SDS011;61787;42.022;23.078;2023-02-24T00:20:37;26.77;;;21.50;;
20014;SDS011;61787;42.022;23.078;2023-02-24T00:21:39;31.17;;;21.70;;
20014;SDS011;61787;42.022;23.078;2023-02-24T00:22:41;31.57;;;20.00;;
20014;SDS011;61787;42.022;23.078;2023-02-24T00:23:44;29.30;;;21.27;;
20014;SDS011;61787;42.022;23.078;2023-02-24T00:24:47;30.10;;;21.40;;
20014;SDS011;61787;42.022;23.078;2023-02-24T00:25:56;29.53;;;21.30;;
20014;SDS011;61787;42.022;23.078;2023-02-24T00:27:01;29.60;;;20.83;;
20014;SDS011;61787;42.022;23.078;2023-02-24T00:28:08;33.77;;;21.27;;
20014;SDS011;61787;42.022;23.078;2023-02-24T00:29:10;29.13;;;21.37;;
20014;SDS011;61787;42.022;23.078;2023-02-24T00:30:12;29.43;;;21.07;;
20014;SDS011;61787;42.022;23.078;2023-02-24T00:31:16;31.60;;;21.20;;
20014;SDS011;61787;42.022;23.078;2023-02-24T00:32:20;31.07;;;21.20;;
20014;SDS011;61787;42.022;23.078;2023-02-24T00:33:21;32.27;;;21.77;;
20014;SDS011;61787;42.022;23.078;2023-02-24T00:34:28;30.30;;;21.33;;
20014;SDS011;61787;42.022;23.078;2023-02-24T00:35:31;28.87;;;20.10;;
20014;SDS011;61787;42.022;23.078;2023-02-24T00:36:33;32.20;;;20.90;;
20014;SDS011;61787;42.022;23.078;2023-02-24T00:37:34;26.83;;;20.80;;
20014;SDS011;61787;42.022;23.078;2023-02-24T00:38:36;28.73;;;21.00;;
20014;SDS011;61787;42.022;23.078;2023-02-24T00:39:39;28.77;;;20.63;;
20014;SDS011;61787;42.022;23.078;2023-02-24T00:40:42;27.57;;;21.10;;
20014;SDS011;61787;42.022;23.078;2023-02-24T00:41:46;29.20;;;21.07;;
20014;SDS011;61787;42.022;23.078;2023-02-24T00:42:48;33.93;;;21.53;;
20014;SDS011;61787;42.022;23.078;2023-02-24T00:43:49;30.30;;;22.00;;
20014;SDS011;61787;42.022;23.078;2023-02-24T00:44:51;32.73;;;22.27;;
20014;SDS011;61787;42.022;23.078;2023-02-24T00:45:54;28.57;;;20.53;;
20014;SDS011;61787;42.022;23.078;2023-02-24T00:46:55;33.63;;;21.53;;
20014;SDS011;61787;42.022;23.078;2023-02-24T00:47:57;26.83;;;21.13;;
20014;SDS011;61787;42.022;23.078;2023-02-24T00:48:59;30.83;;;21.97;;
20014;SDS011;61787;42.022;23.078;2023-02-24T00:50:04;28.67;;;21.87;;
20014;SDS011;61787;42.022;23.078;2023-02-24T00:51:08;32.87;;;22.40;;
20014;SDS011;61787;42.022;23.078;2023-02-24T00:52:11;29.33;;;19.83;;
20014;SDS011;61787;42.022;23.078;2023-02-24T00:53:14;29.13;;;21.13;;
20014;SDS011;61787;42.022;23.078;2023-02-24T00:54:18;27.27;;;20.43;;
20014;SDS011;61787;42.022;23.078;2023-02-24T00:55:20;28.10;;;20.37;;
20014;SDS011;61787;42.022;23.078;2023-02-24T00:56:23;29.40;;;21.43;;
20014;SDS011;61787;42.022;23.078;2023-02-24T00:57:26;29.80;;;21.37;;
20014;SDS011;61787;42.022;23.078;2023-02-24T00:58:28;29.47;;;21.17;;
20014;SDS011;61787;42.022;23.078;2023-02-24T00:59:30;31.67;;;21.93;;
20014;SDS011;61787;42.022;23.078;2023-02-24T01:00:32;28.13;;;20.73;;
20014;SDS011;61787;42.022;23.078;2023-02-24T01:01:36;29.67;;;21.77;;
20014;SDS011;61787;42.022;23.078;2023-02-24T01:02:38;28.57;;;21.17;;
20014;SDS011;61787;42.022;23.078;2023-02-24T01:03:40;29.90;;;21.30;;
20014;SDS011;61787;42.022;23.078;2023-02-24T01:04:42;29.87;;;21.70;;
20014;SDS011;61787;42.022;23.078;2023-02-24T01:05:44;27.53;;;20.93;;
20014;SDS011;61787;42.022;23.078;2023-02-24T01:06:47;28.87;;;20.87;;
20014;SDS011;61787;42.022;23.078;2023-02-24T01:07:50;28.40;;;20.73;;
20014;SDS011;61787;42.022;23.078;2023-02-24T01:08:52;32.13;;;21.97;;
20014;SDS011;61787;42.022;23.078;2023-02-24T01:09:54;29.67;;;21.50;;
20014;SDS011;61787;42.022;23.078;2023-02-24T01:10:57;30.80;;;20.50;;
20014;SDS011;61787;42.022;23.078;2023-02-24T01:12:19;26.93;;;20.43;;
20014;SDS011;61787;42.022;23.078;2023-02-24T01:13:39;30.90;;;20.37;;
20014;SDS011;61787;42.022;23.078;2023-02-24T01:14:42;27.90;;;20.27;;
20014;SDS011;61787;42.022;23.078;2023-02-24T01:15:45;28.83;;;20.03;;
20014;SDS011;61787;42.022;23.078;2023-02-24T01:16:48;27.13;;;21.67;;
20014;SDS011;61787;42.022;23.078;2023-02-24T01:17:53;28.60;;;20.70;;
20014;SDS011;61787;42.022;23.078;2023-02-24T01:18:54;28.47;;;19.17;;
20014;SDS011;61787;42.022;23.078;2023-02-24T01:19:56;29.73;;;20.60;;
20014;SDS011;61787;42.022;23.078;2023-02-24T01:21:15;27.53;;;19.70;;
20014;SDS011;61787;42.022;23.078;2023-02-24T01:22:19;29.07;;;20.03;;
20014;SDS011;61787;42.022;23.078;2023-02-24T01:23:21;26.67;;;20.27;;
20014;SDS011;61787;42.022;23.078;2023-02-24T01:24:24;27.70;;;20.57;;
20014;SDS011;61787;42.022;23.078;2023-02-24T01:25:26;25.67;;;18.83;;
20014;SDS011;61787;42.022;23.078;2023-02-24T01:26:28;28.03;;;19.67;;
20014;SDS011;61787;42.022;23.078;2023-02-24T01:27:31;28.43;;;18.10;;
20014;SDS011;61787;42.022;23.078;2023-02-24T01:28:32;26.50;;;19.10;;
20014;SDS011;61787;42.022;23.078;2023-02-24T01:29:34;26.43;;;18.80;;
20014;SDS011;61787;42.022;23.078;2023-02-24T01:30:40;25.17;;;18.23;;
20014;SDS011;61787;42.022;23.078;2023-02-24T01:31:44;27.90;;;19.27;;
20014;SDS011;61787;42.022;23.078;2023-02-24T01:32:49;24.50;;;18.50;;
20014;SDS011;61787;42.022;23.078;2023-02-24T01:33:51;27.70;;;19.40;;
20014;SDS011;61787;42.022;23.078;2023-02-24T01:34:55;27.50;;;19.07;;
20014;SDS011;61787;42.022;23.078;2023-02-24T01:35:56;25.30;;;18.87;;
20014;SDS011;61787;42.022;23.078;2023-02-24T01:36:58;25.70;;;18.00;;
20014;SDS011;61787;42.022;23.078;2023-02-24T01:37:59;26.67;;;19.13;;
20014;SDS011;61787;42.022;23.078;2023-02-24T01:39:02;26.13;;;18.07;;
20014;SDS011;61787;42.022;23.078;2023-02-24T01:40:06;25.57;;;18.87;;
20014;SDS011;61787;42.022;23.078;2023-02-24T01:41:23;25.77;;;18.50;;
20014;SDS011;61787;42.022;23.078;2023-02-24T01:42:27;24.10;;;18.03;;
20014;SDS011;61787;42.022;23.078;2023-02-24T01:43:30;26.60;;;19.67;;
20014;SDS011;61787;42.022;23.078;2023-02-24T01:45:36;25.63;;;18.23;;
20014;SDS011;61787;42.022;23.078;2023-02-24T01:46:41;24.03;;;18.17;;
20014;SDS011;61787;42.022;23.078;2023-02-24T01:47:44;24.73;;;18.53;;
20014;SDS011;61787;42.022;23.078;2023-02-24T01:48:50;27.43;;;18.87;;
20014;SDS011;61787;42.022;23.078;2023-02-24T01:49:57;27.70;;;19.60;;
20014;SDS011;61787;42.022;23.078;2023-02-24T01:50:59;25.47;;;18.63;;
20014;SDS011;61787;42.022;23.078;2023-02-24T01:53:27;25.83;;;18.93;;
20014;SDS011;61787;42.022;23.078;2023-02-24T01:54:32;25.83;;;18.23;;
20014;SDS011;61787;42.022;23.078;2023-02-24T01:55:43;25.80;;;18.83;;
20014;SDS011;61787;42.022;23.078;2023-02-24T01:56:50;26.00;;;19.07;;
20014;SDS011;61787;42.022;23.078;2023-02-24T01:57:52;28.70;;;20.10;;
20014;SDS011;61787;42.022;23.078;2023-02-24T01:58:55;25.13;;;18.40;;
20014;SDS011;61787;42.022;23.078;2023-02-24T01:59:59;26.47;;;19.63;;
20014;SDS011;61787;42.022;23.078;2023-02-24T02:01:19;28.33;;;19.17;;
20014;SDS011;61787;42.022;23.078;2023-02-24T02:02:21;25.00;;;19.47;;
20014;SDS011;61787;42.022;23.078;2023-02-24T02:04:29;25.30;;;19.30;;
20014;SDS011;61787;42.022;23.078;2023-02-24T02:05:36;25.47;;;18.47;;
20014;SDS011;61787;42.022;23.078;2023-02-24T02:06:39;25.43;;;18.20;;
20014;SDS011;61787;42.022;23.078;2023-02-24T02:07:41;27.70;;;18.47;;
20014;SDS011;61787;42.022;23.078;2023-02-24T02:08:45;26.33;;;18.70;;
20014;SDS011;61787;42.022;23.078;2023-02-24T02:09:47;25.37;;;18.13;;
20014;SDS011;61787;42.022;23.078;2023-02-24T02:10:50;25.70;;;18.83;;
20014;SDS011;61787;42.022;23.078;2023-02-24T02:11:58;25.73;;;18.53;;
20014;SDS011;61787;42.022;23.078;2023-02-24T02:13:00;23.60;;;19.03;;
20014;SDS011;61787;42.022;23.078;2023-02-24T02:14:04;25.67;;;18.80;;
20014;SDS011;61787;42.022;23.078;2023-02-24T02:15:06;29.73;;;19.70;;
20014;SDS011;61787;42.022;23.078;2023-02-24T02:21:41;27.90;;;19.33;;
20014;SDS011;61787;42.022;23.078;2023-02-24T02:24:26;26.43;;;18.83;;
20014;SDS011;61787;42.022;23.078;2023-02-24T02:26:49;23.97;;;18.57;;
20014;SDS011;61787;42.022;23.078;2023-02-24T02:33:45;25.63;;;18.93;;
20014;SDS011;61787;42.022;23.078;2023-02-24T02:42:57;26.57;;;18.93;;
20014;SDS011;61787;42.022;23.078;2023-02-24T02:44:08;27.77;;;20.00;;
20014;SDS011;61787;42.022;23.078;2023-02-24T02:45:30;24.83;;;18.50;;
20014;SDS011;61787;42.022;23.078;2023-02-24T02:46:36;25.10;;;18.77;;
20014;SDS011;61787;42.022;23.078;2023-02-24T02:49:04;26.40;;;19.73;;
20014;SDS011;61787;42.022;23.078;2023-02-24T02:50:24;25.80;;;19.10;;
20014;SDS011;61787;42.022;23.078;2023-02-24T02:51:31;26.30;;;19.47;;
20014;SDS011;61787;42.022;23.078;2023-02-24T02:52:39;28.13;;;19.07;;
20014;SDS011;61787;42.022;23.078;2023-02-24T02:53:49;24.50;;;19.07;;
20014;SDS011;61787;42.022;23.078;2023-02-24T02:55:01;29.20;;;20.10;;
20014;SDS011;61787;42.022;23.078;2023-02-24T02:56:19;25.47;;;19.63;;
20014;SDS011;61787;42.022;23.078;2023-02-24T02:57:27;25.40;;;18.53;;
20014;SDS011;61787;42.022;23.078;2023-02-24T02:58:31;26.90;;;18.70;;
20014;SDS011;61787;42.022;23.078;2023-02-24T02:59:36;28.17;;;18.90;;
20014;SDS011;61787;42.022;23.078;2023-02-24T03:00:52;26.40;;;19.33;;
20014;SDS011;61787;42.022;23.078;2023-02-24T03:02:04;23.03;;;17.70;;
20014;SDS011;61787;42.022;23.078;2023-02-24T03:03:13;27.07;;;19.10;;
20014;SDS011;61787;42.022;23.078;2023-02-24T03:04:18;25.93;;;18.97;;
20014;SDS011;61787;42.022;23.078;2023-02-24T03:05:24;28.30;;;19.93;;
20014;SDS011;61787;42.022;23.078;2023-02-24T03:06:34;27.60;;;19.30;;
20014;SDS011;61787;42.022;23.078;2023-02-24T03:07:40;26.07;;;19.50;;
20014;SDS011;61787;42.022;23.078;2023-02-24T03:08:52;23.33;;;18.83;;
20014;SDS011;61787;42.022;23.078;2023-02-24T03:10:18;25.33;;;19.83;;
20014;SDS011;61787;42.022;23.078;2023-02-24T03:11:27;25.83;;;19.53;;
20014;SDS011;61787;42.022;23.078;2023-02-24T03:12:32;28.73;;;19.40;;
20014;SDS011;61787;42.022;23.078;2023-02-24T03:13:39;23.87;;;18.93;;
20014;SDS011;61787;42.022;23.078;2023-02-24T03:14:47;26.23;;;19.80;;
20014;SDS011;61787;42.022;23.078;2023-02-24T03:15:53;26.03;;;20.17;;
20014;SDS011;61787;42.022;23.078;2023-02-24T03:16:57;29.97;;;20.87;;
20014;SDS011;61787;42.022;23.078;2023-02-24T03:18:03;26.87;;;18.93;;
20014;SDS011;61787;42.022;23.078;2023-02-24T03:19:12;30.90;;;21.17;;
20014;SDS011;61787;42.022;23.078;2023-02-24T03:20:20;28.40;;;21.30;;
20014;SDS011;61787;42.022;23.078;2023-02-24T03:21:44;27.23;;;21.83;;
20014;SDS011;61787;42.022;23.078;2023-02-24T03:22:53;30.13;;;21.43;;
20014;SDS011;61787;42.022;23.078;2023-02-24T03:24:02;30.13;;;21.47;;
20014;SDS011;61787;42.022;23.078;2023-02-24T03:25:06;31.57;;;20.80;;
20014;SDS011;61787;42.022;23.078;2023-02-24T03:26:13;28.43;;;20.40;;
20014;SDS011;61787;42.022;23.078;2023-02-24T03:27:39;27.90;;;20.60;;
20014;SDS011;61787;42.022;23.078;2023-02-24T03:30:24;31.70;;;21.30;;
20014;SDS011;61787;42.022;23.078;2023-02-24T03:31:42;27.47;;;20.67;;
20014;SDS011;61787;42.022;23.078;2023-02-24T03:35:17;29.10;;;20.10;;
20014;SDS011;61787;42.022;23.078;2023-02-24T03:36:22;27.17;;;20.63;;
20014;SDS011;61787;42.022;23.078;2023-02-24T03:37:24;25.63;;;19.33;;
20014;SDS011;61787;42.022;23.078;2023-02-24T03:38:29;26.60;;;18.87;;
20014;SDS011;61787;42.022;23.078;2023-02-24T03:39:33;28.90;;;21.43;;
20014;SDS011;61787;42.022;23.078;2023-02-24T03:40:38;25.87;;;19.93;;
20014;SDS011;61787;42.022;23.078;2023-02-24T03:43:10;24.57;;;20.07;;
20014;SDS011;61787;42.022;23.078;2023-02-24T03:44:17;28.73;;;20.87;;
20014;SDS011;61787;42.022;23.078;2023-02-24T03:45:18;30.23;;;20.30;;
20014;SDS011;61787;42.022;23.078;2023-02-24T03:46:23;25.43;;;20.63;;
20014;SDS011;61787;42.022;23.078;2023-02-24T03:47:25;25.30;;;17.90;;
20014;SDS011;61787;42.022;23.078;2023-02-24T03:48:27;26.50;;;18.33;;
20014;SDS011;61787;42.022;23.078;2023-02-24T03:49:29;26.40;;;19.20;;
20014;SDS011;61787;42.022;23.078;2023-02-24T03:50:31;28.13;;;19.10;;
20014;SDS011;61787;42.022;23.078;2023-02-24T03:51:34;27.07;;;18.57;;
20014;SDS011;61787;42.022;23.078;2023-02-24T03:52:50;24.73;;;17.67;;
20014;SDS011;61787;42.022;23.078;2023-02-24T03:54:16;24.20;;;18.30;;
20014;SDS011;61787;42.022;23.078;2023-02-24T03:56:46;27.93;;;20.10;;
20014;SDS011;61787;42.022;23.078;2023-02-24T03:59:51;28.23;;;19.43;;
20014;SDS011;61787;42.022;23.078;2023-02-24T04:04:33;30.47;;;20.40;;
20014;SDS011;61787;42.022;23.078;2023-02-24T04:05:48;25.57;;;19.63;;
20014;SDS011;61787;42.022;23.078;2023-02-24T04:07:11;29.70;;;19.47;;
20014;SDS011;61787;42.022;23.078;2023-02-24T04:08:15;33.43;;;20.40;;
20014;SDS011;61787;42.022;23.078;2023-02-24T04:09:20;27.37;;;20.27;;
20014;SDS011;61787;42.022;23.078;2023-02-24T04:10:37;27.67;;;19.17;;
20014;SDS011;61787;42.022;23.078;2023-02-24T04:13:38;26.27;;;19.57;;
20014;SDS011;61787;42.022;23.078;2023-02-24T04:15:58;29.20;;;20.27;;
20014;SDS011;61787;42.022;23.078;2023-02-24T04:17:15;31.47;;;19.77;;
20014;SDS011;61787;42.022;23.078;2023-02-24T04:18:37;29.03;;;21.43;;
20014;SDS011;61787;42.022;23.078;2023-02-24T04:19:41;27.70;;;19.97;;
20014;SDS011;61787;42.022;23.078;2023-02-24T04:20:45;32.33;;;21.33;;
20014;SDS011;61787;42.022;23.078;2023-02-24T04:21:53;25.13;;;19.60;;
20014;SDS011;61787;42.022;23.078;2023-02-24T04:22:57;25.70;;;20.10;;
20014;SDS011;61787;42.022;23.078;2023-02-24T04:24:03;30.77;;;20.47;;
20014;SDS011;61787;42.022;23.078;2023-02-24T04:25:11;28.40;;;19.67;;
20014;SDS011;61787;42.022;23.078;2023-02-24T04:26:17;29.20;;;20.40;;
20014;SDS011;61787;42.022;23.078;2023-02-24T04:27:22;28.10;;;19.93;;
20014;SDS011;61787;42.022;23.078;2023-02-24T04:28:24;26.87;;;21.07;;
20014;SDS011;61787;42.022;23.078;2023-02-24T04:29:29;24.43;;;19.73;;
20014;SDS011;61787;42.022;23.078;2023-02-24T04:30:37;26.30;;;21.03;;
20014;SDS011;61787;42.022;23.078;2023-02-24T04:31:46;27.20;;;19.00;;
20014;SDS011;61787;42.022;23.078;2023-02-24T04:32:53;27.37;;;19.87;;
20014;SDS011;61787;42.022;23.078;2023-02-24T04:33:56;26.50;;;19.23;;
20014;SDS011;61787;42.022;23.078;2023-02-24T04:35:06;27.30;;;21.47;;
20014;SDS011;61787;42.022;23.078;2023-02-24T04:36:10;28.43;;;20.90;;
20014;SDS011;61787;42.022;23.078;2023-02-24T04:37:13;30.87;;;20.60;;
20014;SDS011;61787;42.022;23.078;2023-02-24T04:38:15;25.67;;;19.87;;
20014;SDS011;61787;42.022;23.078;2023-02-24T04:39:18;27.23;;;20.47;;
20014;SDS011;61787;42.022;23.078;2023-02-24T04:40:21;28.43;;;20.70;;
20014;SDS011;61787;42.022;23.078;2023-02-24T04:41:23;26.43;;;20.67;;
20014;SDS011;61787;42.022;23.078;2023-02-24T04:42:25;28.47;;;20.90;;
20014;SDS011;61787;42.022;23.078;2023-02-24T04:43:27;28.83;;;20.97;;
20014;SDS011;61787;42.022;23.078;2023-02-24T04:44:29;34.57;;;21.50;;
20014;SDS011;61787;42.022;23.078;2023-02-24T04:45:32;30.87;;;19.90;;
20014;SDS011;61787;42.022;23.078;2023-02-24T04:46:34;28.40;;;21.20;;
20014;SDS011;61787;42.022;23.078;2023-02-24T04:47:36;28.73;;;21.57;;
20014;SDS011;61787;42.022;23.078;2023-02-24T04:48:37;31.53;;;22.40;;
20014;SDS011;61787;42.022;23.078;2023-02-24T04:49:39;30.53;;;21.43;;
20014;SDS011;61787;42.022;23.078;2023-02-24T04:50:44;29.90;;;21.97;;
20014;SDS011;61787;42.022;23.078;2023-02-24T04:51:46;30.30;;;20.73;;
20014;SDS011;61787;42.022;23.078;2023-02-24T04:52:58;27.30;;;20.83;;
20014;SDS011;61787;42.022;23.078;2023-02-24T04:54:01;29.33;;;21.37;;
20014;SDS011;61787;42.022;23.078;2023-02-24T04:55:04;30.87;;;22.43;;
20014;SDS011;61787;42.022;23.078;2023-02-24T04:56:10;32.80;;;22.23;;
20014;SDS011;61787;42.022;23.078;2023-02-24T04:57:12;33.07;;;23.80;;
20014;SDS011;61787;42.022;23.078;2023-02-24T04:58:15;30.87;;;21.70;;
20014;SDS011;61787;42.022;23.078;2023-02-24T04:59:20;30.60;;;22.40;;
20014;SDS011;61787;42.022;23.078;2023-02-24T05:00:23;29.70;;;22.70;;
20014;SDS011;61787;42.022;23.078;2023-02-24T05:01:26;28.37;;;22.33;;
20014;SDS011;61787;42.022;23.078;2023-02-24T05:02:29;33.13;;;22.30;;
20014;SDS011;61787;42.022;23.078;2023-02-24T05:03:30;34.00;;;22.63;;
20014;SDS011;61787;42.022;23.078;2023-02-24T05:04:33;30.90;;;22.43;;
20014;SDS011;61787;42.022;23.078;2023-02-24T05:05:39;32.37;;;23.60;;
20014;SDS011;61787;42.022;23.078;2023-02-24T05:06:43;31.47;;;23.87;;
20014;SDS011;61787;42.022;23.078;2023-02-24T05:07:45;32.23;;;22.73;;
20014;SDS011;61787;42.022;23.078;2023-02-24T05:08:47;37.73;;;23.40;;
20014;SDS011;61787;42.022;23.078;2023-02-24T05:09:52;31.17;;;22.03;;
20014;SDS011;61787;42.022;23.078;2023-02-24T05:10:55;29.03;;;22.70;;
20014;SDS011;61787;42.022;23.078;2023-02-24T05:11:58;34.57;;;24.17;;
20014;SDS011;61787;42.022;23.078;2023-02-24T05:13:00;36.77;;;25.27;;
20014;SDS011;61787;42.022;23.078;2023-02-24T05:14:02;30.13;;;24.10;;
20014;SDS011;61787;42.022;23.078;2023-02-24T05:15:05;33.30;;;23.70;;
20014;SDS011;61787;42.022;23.078;2023-02-24T05:16:08;30.50;;;23.00;;
20014;SDS011;61787;42.022;23.078;2023-02-24T05:17:10;33.70;;;23.53;;
20014;SDS011;61787;42.022;23.078;2023-02-24T05:18:14;35.93;;;22.80;;
20014;SDS011;61787;42.022;23.078;2023-02-24T05:19:26;30.73;;;22.37;;
20014;SDS011;61787;42.022;23.078;2023-02-24T05:20:48;28.97;;;21.60;;
20014;SDS011;61787;42.022;23.078;2023-02-24T05:22:10;29.93;;;21.93;;
20014;SDS011;61787;42.022;23.078;2023-02-24T05:23:11;30.13;;;23.10;;
20014;SDS011;61787;42.022;23.078;2023-02-24T05:24:13;34.70;;;24.27;;
20014;SDS011;61787;42.022;23.078;2023-02-24T05:25:17;29.47;;;23.73;;
20014;SDS011;61787;42.022;23.078;2023-02-24T05:26:21;32.73;;;23.43;;
20014;SDS011;61787;42.022;23.078;2023-02-24T05:27:25;31.73;;;24.47;;
20014;SDS011;61787;42.022;23.078;2023-02-24T05:28:28;29.70;;;23.57;;
20014;SDS011;61787;42.022;23.078;2023-02-24T05:29:33;32.43;;;24.60;;
20014;SDS011;61787;42.022;23.078;2023-02-24T05:30:35;32.80;;;23.20;;
20014;SDS011;61787;42.022;23.078;2023-02-24T05:31:37;31.80;;;22.43;;
20014;SDS011;61787;42.022;23.078;2023-02-24T05:32:39;30.00;;;23.10;;
20014;SDS011;61787;42.022;23.078;2023-02-24T05:33:41;32.90;;;23.73;;
20014;SDS011;61787;42.022;23.078;2023-02-24T05:34:44;30.07;;;23.03;;
20014;SDS011;61787;42.022;23.078;2023-02-24T05:35:46;30.10;;;21.13;;
20014;SDS011;61787;42.022;23.078;2023-02-24T05:36:48;29.50;;;22.17;;
20014;SDS011;61787;42.022;23.078;2023-02-24T05:37:50;32.20;;;22.80;;
20014;SDS011;61787;42.022;23.078;2023-02-24T05:38:52;29.63;;;22.07;;
20014;SDS011;61787;42.022;23.078;2023-02-24T05:39:58;32.33;;;23.37;;
20014;SDS011;61787;42.022;23.078;2023-02-24T05:41:04;33.30;;;23.67;;
20014;SDS011;61787;42.022;23.078;2023-02-24T05:42:18;30.30;;;22.63;;
20014;SDS011;61787;42.022;23.078;2023-02-24T05:43:19;32.47;;;24.57;;
20014;SDS011;61787;42.022;23.078;2023-02-24T05:44:22;32.73;;;24.13;;
20014;SDS011;61787;42.022;23.078;2023-02-24T05:45:26;33.00;;;24.77;;
20014;SDS011;61787;42.022;23.078;2023-02-24T05:46:31;35.63;;;25.80;;
20014;SDS011;61787;42.022;23.078;2023-02-24T05:47:34;32.93;;;24.80;;
20014;SDS011;61787;42.022;23.078;2023-02-24T05:48:37;43.73;;;25.50;;
20014;SDS011;61787;42.022;23.078;2023-02-24T05:49:38;31.20;;;22.43;;
20014;SDS011;61787;42.022;23.078;2023-02-24T05:50:40;31.47;;;23.13;;
20014;SDS011;61787;42.022;23.078;2023-02-24T05:51:46;33.40;;;23.27;;
20014;SDS011;61787;42.022;23.078;2023-02-24T05:52:56;36.77;;;24.77;;
20014;SDS011;61787;42.022;23.078;2023-02-24T05:53:58;32.63;;;23.67;;
20014;SDS011;61787;42.022;23.078;2023-02-24T05:54:59;30.00;;;22.23;;
20014;SDS011;61787;42.022;23.078;2023-02-24T05:56:02;34.23;;;23.77;;
20014;SDS011;61787;42.022;23.078;2023-02-24T05:57:11;32.47;;;22.83;;
20014;SDS011;61787;42.022;23.078;2023-02-24T05:58:15;35.33;;;22.63;;
20014;SDS011;61787;42.022;23.078;2023-02-24T05:59:17;31.03;;;22.77;;
20014;SDS011;61787;42.022;23.078;2023-02-24T06:00:21;34.30;;;24.20;;
20014;SDS011;61787;42.022;23.078;2023-02-24T06:01:30;33.03;;;23.73;;
20014;SDS011;61787;42.022;23.078;2023-02-24T06:02:33;36.87;;;24.83;;
20014;SDS011;61787;42.022;23.078;2023-02-24T06:03:37;37.00;;;25.97;;
20014;SDS011;61787;42.022;23.078;2023-02-24T06:04:42;33.23;;;25.47;;
20014;SDS011;61787;42.022;23.078;2023-02-24T06:05:52;36.13;;;26.37;;
20014;SDS011;61787;42.022;23.078;2023-02-24T06:06:54;34.97;;;24.87;;
20014;SDS011;61787;42.022;23.078;2023-02-24T06:07:56;35.80;;;26.53;;
20014;SDS011;61787;42.022;23.078;2023-02-24T06:09:07;33.67;;;24.57;;
20014;SDS011;61787;42.022;23.078;2023-02-24T06:10:11;31.93;;;24.63;;
20014;SDS011;61787;42.022;23.078;2023-02-24T06:11:12;35.37;;;24.80;;
20014;SDS011;61787;42.022;23.078;2023-02-24T06:12:14;39.50;;;25.77;;
20014;SDS011;61787;42.022;23.078;2023-02-24T06:13:17;36.33;;;26.50;;
20014;SDS011;61787;42.022;23.078;2023-02-24T06:14:18;45.40;;;26.77;;
20014;SDS011;61787;42.022;23.078;2023-02-24T06:15:21;38.37;;;27.90;;
20014;SDS011;61787;42.022;23.078;2023-02-24T06:16:23;36.73;;;25.77;;
20014;SDS011;61787;42.022;23.078;2023-02-24T06:17:28;36.13;;;26.63;;
20014;SDS011;61787;42.022;23.078;2023-02-24T06:18:29;40.33;;;26.40;;
20014;SDS011;61787;42.022;23.078;2023-02-24T06:19:31;37.90;;;26.43;;
20014;SDS011;61787;42.022;23.078;2023-02-24T06:20:33;38.57;;;27.03;;
20014;SDS011;61787;42.022;23.078;2023-02-24T06:21:36;38.43;;;26.30;;
20014;SDS011;61787;42.022;23.078;2023-02-24T06:22:41;37.57;;;24.07;;
20014;SDS011;61787;42.022;23.078;2023-02-24T06:23:42;37.13;;;24.73;;
20014;SDS011;61787;42.022;23.078;2023-02-24T06:24:45;35.80;;;24.70;;
20014;SDS011;61787;42.022;23.078;2023-02-24T06:25:49;38.00;;;25.37;;
20014;SDS011;61787;42.022;23.078;2023-02-24T06:26:51;42.33;;;27.40;;
20014;SDS011;61787;42.022;23.078;2023-02-24T06:27:54;39.03;;;27.13;;
20014;SDS011;61787;42.022;23.078;2023-02-24T06:28:56;42.27;;;27.60;;
20014;SDS011;61787;42.022;23.078;2023-02-24T06:30:01;39.90;;;27.63;;
20014;SDS011;61787;42.022;23.078;2023-02-24T06:31:03;41.97;;;28.57;;
20014;SDS011;61787;42.022;23.078;2023-02-24T06:32:07;41.40;;;30.17;;
20014;SDS011;61787;42.022;23.078;2023-02-24T06:33:09;42.50;;;28.97;;
20014;SDS011;61787;42.022;23.078;2023-02-24T06:34:11;42.47;;;30.97;;
20014;SDS011;61787;42.022;23.078;2023-02-24T06:35:18;37.77;;;28.23;;
20014;SDS011;61787;42.022;23.078;2023-02-24T06:36:21;41.20;;;26.87;;
20014;SDS011;61787;42.022;23.078;2023-02-24T06:37:23;36.20;;;26.17;;
20014;SDS011;61787;42.022;23.078;2023-02-24T06:38:25;45.73;;;29.43;;
20014;SDS011;61787;42.022;23.078;2023-02-24T06:39:26;39.50;;;27.93;;
20014;SDS011;61787;42.022;23.078;2023-02-24T06:40:28;35.80;;;27.03;;
20014;SDS011;61787;42.022;23.078;2023-02-24T06:41:31;45.60;;;28.20;;
20014;SDS011;61787;42.022;23.078;2023-02-24T06:42:33;37.63;;;26.93;;
20014;SDS011;61787;42.022;23.078;2023-02-24T06:43:35;39.70;;;29.07;;
20014;SDS011;61787;42.022;23.078;2023-02-24T06:44:39;41.70;;;28.73;;
20014;SDS011;61787;42.022;23.078;2023-02-24T06:45:41;42.33;;;29.40;;
20014;SDS011;61787;42.022;23.078;2023-02-24T06:46:43;40.17;;;28.17;;
20014;SDS011;61787;42.022;23.078;2023-02-24T06:47:46;46.63;;;28.07;;
20014;SDS011;61787;42.022;23.078;2023-02-24T06:48:49;39.87;;;28.37;;
20014;SDS011;61787;42.022;23.078;2023-02-24T06:49:50;41.97;;;28.90;;
20014;SDS011;61787;42.022;23.078;2023-02-24T06:50:52;37.13;;;28.23;;
20014;SDS011;61787;42.022;23.078;2023-02-24T06:51:55;39.10;;;28.07;;
20014;SDS011;61787;42.022;23.078;2023-02-24T06:52:57;43.33;;;28.57;;
20014;SDS011;61787;42.022;23.078;2023-02-24T06:54:01;42.83;;;30.13;;
20014;SDS011;61787;42.022;23.078;2023-02-24T06:55:03;44.03;;;31.30;;
20014;SDS011;61787;42.022;23.078;2023-02-24T06:56:05;45.23;;;30.77;;
20014;SDS011;61787;42.022;23.078;2023-02-24T06:57:15;42.93;;;31.03;;